sensor_id;sensor_type;location;lat;lon;timestamp;pressure;altitude;pressure_sealevel;temperature;humidity
15880;BME280;61999;51.514;14.614;2023-09-19T00:00:38;99213.47;;;17.32;77.28
15880;BME280;61999;51.514;14.614;2023-09-19T00:03:07;99201.34;;;17.66;75.61
15880;BME280;61999;51.514;14.614;2023-09-19T00:05:38;99205.16;;;17.78;74.51
15880;BME280;61999;51.514;14.614;2023-09-19T00:08:06;99208.75;;;17.85;73.92
15880;BME280;61999;51.514;14.614;2023-09-19T00:10:34;99202.34;;;17.79;74.52
15880;BME280;61999;51.514;14.614;2023-09-19T00:13:04;99216.97;;;17.69;74.64
15880;BME280;61999;51.514;14.614;2023-09-19T00:15:38;99208.19;;;17.75;74.55
15880;BME280;61999;51.514;14.614;2023-09-19T00:18:07;99212.88;;;17.51;74.72
15880;BME280;61999;51.514;14.614;2023-09-19T00:20:36;99209.00;;;17.17;76.98
15880;BME280;61999;51.514;14.614;2023-09-19T00:23:05;99219.75;;;17.60;75.52
15880;BME280;61999;51.514;14.614;2023-09-19T00:25:36;99210.13;;;17.81;74.55
15880;BME280;61999;51.514;14.614;2023-09-19T00:28:07;99211.22;;;17.87;74.13
15880;BME280;61999;51.514;14.614;2023-09-19T00:30:35;99215.72;;;17.86;73.91
15880;BME280;61999;51.514;14.614;2023-09-19T00:33:05;99205.69;;;17.88;74.24
15880;BME280;61999;51.514;14.614;2023-09-19T00:35:34;99208.94;;;17.83;74.05
15880;BME280;61999;51.514;14.614;2023-09-19T00:38:04;99204.13;;;17.94;74.39
15880;BME280;61999;51.514;14.614;2023-09-19T00:40:33;99199.03;;;17.99;74.15
15880;BME280;61999;51.514;14.614;2023-09-19T00:43:02;99196.28;;;17.92;73.78
15880;BME280;61999;51.514;14.614;2023-09-19T00:45:32;99204.81;;;17.81;73.81
15880;BME280;61999;51.514;14.614;2023-09-19T00:48:02;99201.97;;;17.82;74.21
15880;BME280;61999;51.514;14.614;2023-09-19T00:50:41;99204.81;;;17.81;73.70
15880;BME280;61999;51.514;14.614;2023-09-19T00:53:14;99196.75;;;17.96;73.47
15880;BME280;61999;51.514;14.614;2023-09-19T00:55:45;99193.50;;;18.00;73.85
15880;BME280;61999;51.514;14.614;2023-09-19T00:58:13;99192.25;;;17.96;73.96
15880;BME280;61999;51.514;14.614;2023-09-19T01:00:43;99186.91;;;17.96;74.24
15880;BME280;61999;51.514;14.614;2023-09-19T01:03:12;99192.25;;;17.96;73.73
15880;BME280;61999;51.514;14.614;2023-09-19T01:05:41;99193.53;;;17.79;74.23
15880;BME280;61999;51.514;14.614;2023-09-19T01:08:10;99197.44;;;17.83;73.71
15880;BME280;61999;51.514;14.614;2023-09-19T01:10:48;99191.94;;;17.70;73.23
15880;BME280;61999;51.514;14.614;2023-09-19T01:13:28;99184.38;;;17.88;73.61
15880;BME280;61999;51.514;14.614;2023-09-19T01:16:08;99175.22;;;17.76;73.64
15880;BME280;61999;51.514;14.614;2023-09-19T01:18:52;99181.69;;;17.88;73.52
15880;BME280;61999;51.514;14.614;2023-09-19T01:21:31;99178.66;;;17.91;73.77
15880;BME280;61999;51.514;14.614;2023-09-19T01:24:39;99183.16;;;17.91;73.24
15880;BME280;61999;51.514;14.614;2023-09-19T01:27:45;99177.19;;;17.89;73.37
15880;BME280;61999;51.514;14.614;2023-09-19T01:30:26;99173.31;;;17.91;73.72
15880;BME280;61999;51.514;14.614;2023-09-19T01:32:56;99179.63;;;17.69;73.61
15880;BME280;61999;51.514;14.614;2023-09-19T01:35:26;99182.31;;;17.69;72.94
15880;BME280;61999;51.514;14.614;2023-09-19T01:37:54;99178.59;;;17.70;73.62
15880;BME280;61999;51.514;14.614;2023-09-19T01:40:22;99175.72;;;17.86;73.24
15880;BME280;61999;51.514;14.614;2023-09-19T01:42:57;99180.66;;;17.89;72.82
15880;BME280;61999;51.514;14.614;2023-09-19T01:45:37;99170.00;;;17.89;72.49
15880;BME280;61999;51.514;14.614;2023-09-19T01:48:27;99182.03;;;17.42;70.59
15880;BME280;61999;51.514;14.614;2023-09-19T01:51:02;99172.44;;;17.11;74.94
15880;BME280;61999;51.514;14.614;2023-09-19T01:53:36;99174.75;;;17.51;72.91
15880;BME280;61999;51.514;14.614;2023-09-19T01:56:15;99177.72;;;17.62;72.88
15880;BME280;61999;51.514;14.614;2023-09-19T01:58:48;99175.78;;;17.35;71.05
15880;BME280;61999;51.514;14.614;2023-09-19T02:01:24;99193.34;;;15.56;81.08
15880;BME280;61999;51.514;14.614;2023-09-19T02:03:53;99191.41;;;16.34;80.93
15880;BME280;61999;51.514;14.614;2023-09-19T02:06:23;99179.88;;;16.04;79.04
15880;BME280;61999;51.514;14.614;2023-09-19T02:08:53;99188.22;;;16.39;79.23
15880;BME280;61999;51.514;14.614;2023-09-19T02:11:22;99187.19;;;16.25;77.38
15880;BME280;61999;51.514;14.614;2023-09-19T02:13:51;99184.03;;;16.89;75.24
15880;BME280;61999;51.514;14.614;2023-09-19T02:16:22;99194.94;;;15.66;79.99
15880;BME280;61999;51.514;14.614;2023-09-19T02:18:50;99179.81;;;15.66;83.29
15880;BME280;61999;51.514;14.614;2023-09-19T02:21:18;99185.03;;;16.58;78.42
15880;BME280;61999;51.514;14.614;2023-09-19T02:23:48;99187.50;;;16.89;75.97
15880;BME280;61999;51.514;14.614;2023-09-19T02:26:16;99191.72;;;17.13;74.79
15880;BME280;61999;51.514;14.614;2023-09-19T02:28:46;99193.28;;;17.23;73.54
15880;BME280;61999;51.514;14.614;2023-09-19T02:31:14;99198.25;;;16.81;74.40
15880;BME280;61999;51.514;14.614;2023-09-19T02:33:44;99200.56;;;16.99;74.35
15880;BME280;61999;51.514;14.614;2023-09-19T02:36:12;99196.84;;;17.30;73.08
15880;BME280;61999;51.514;14.614;2023-09-19T02:38:43;99200.22;;;17.38;72.57
15880;BME280;61999;51.514;14.614;2023-09-19T02:41:11;99202.56;;;17.27;72.62
15880;BME280;61999;51.514;14.614;2023-09-19T02:43:39;99206.28;;;16.43;73.54
15880;BME280;61999;51.514;14.614;2023-09-19T02:46:07;99202.09;;;15.65;80.40
15880;BME280;61999;51.514;14.614;2023-09-19T02:48:35;99208.91;;;15.36;81.69
15880;BME280;61999;51.514;14.614;2023-09-19T02:51:05;99204.06;;;15.40;83.75
15880;BME280;61999;51.514;14.614;2023-09-19T02:53:33;99197.81;;;15.87;81.21
15880;BME280;61999;51.514;14.614;2023-09-19T02:56:01;99202.16;;;16.03;80.49
15880;BME280;61999;51.514;14.614;2023-09-19T02:58:30;99216.47;;;16.40;76.34
15880;BME280;61999;51.514;14.614;2023-09-19T03:01:08;99209.84;;;15.44;81.67
15880;BME280;61999;51.514;14.614;2023-09-19T03:03:36;99210.69;;;15.44;84.32
15880;BME280;61999;51.514;14.614;2023-09-19T03:06:07;99216.25;;;16.26;78.37
15880;BME280;61999;51.514;14.614;2023-09-19T03:08:36;99229.94;;;15.69;78.20
15880;BME280;61999;51.514;14.614;2023-09-19T03:11:06;99228.91;;;15.08;84.68
15880;BME280;61999;51.514;14.614;2023-09-19T03:13:36;99224.75;;;14.58;87.92
15880;BME280;61999;51.514;14.614;2023-09-19T03:16:04;99215.97;;;15.13;86.88
15880;BME280;61999;51.514;14.614;2023-09-19T03:18:34;99215.31;;;15.73;80.81
15880;BME280;61999;51.514;14.614;2023-09-19T03:21:03;99210.66;;;15.21;82.71
15880;BME280;61999;51.514;14.614;2023-09-19T03:23:32;99217.75;;;15.21;84.07
15880;BME280;61999;51.514;14.614;2023-09-19T03:26:00;99208.28;;;16.26;79.00
15880;BME280;61999;51.514;14.614;2023-09-19T03:28:28;99215.06;;;16.67;76.15
15880;BME280;61999;51.514;14.614;2023-09-19T03:31:00;99217.34;;;16.55;73.94
15880;BME280;61999;51.514;14.614;2023-09-19T03:33:28;99217.94;;;16.27;77.25
15880;BME280;61999;51.514;14.614;2023-09-19T03:35:58;99225.94;;;15.03;81.61
15880;BME280;61999;51.514;14.614;2023-09-19T03:38:27;99233.94;;;14.94;82.64
15880;BME280;61999;51.514;14.614;2023-09-19T03:40:57;99230.47;;;14.86;85.59
15880;BME280;61999;51.514;14.614;2023-09-19T03:43:25;99230.06;;;14.25;86.79
15880;BME280;61999;51.514;14.614;2023-09-19T03:45:53;99232.53;;;13.94;92.86
15880;BME280;61999;51.514;14.614;2023-09-19T03:48:22;99231.38;;;14.29;91.11
15880;BME280;61999;51.514;14.614;2023-09-19T03:50:50;99228.34;;;14.81;86.33
15880;BME280;61999;51.514;14.614;2023-09-19T03:53:19;99226.03;;;14.78;83.91
15880;BME280;61999;51.514;14.614;2023-09-19T03:55:47;99226.06;;;14.29;88.63
15880;BME280;61999;51.514;14.614;2023-09-19T03:58:17;99227.41;;;14.17;90.75
15880;BME280;61999;51.514;14.614;2023-09-19T04:00:45;99237.00;;;14.26;90.84
15880;BME280;61999;51.514;14.614;2023-09-19T04:03:14;99237.34;;;13.90;92.26
15880;BME280;61999;51.514;14.614;2023-09-19T04:05:47;99240.56;;;13.59;91.54
15880;BME280;61999;51.514;14.614;2023-09-19T04:08:15;99231.00;;;13.67;96.98
15880;BME280;61999;51.514;14.614;2023-09-19T04:10:44;99230.53;;;13.79;93.20
15880;BME280;61999;51.514;14.614;2023-09-19T04:13:12;99228.41;;;13.32;97.57
15880;BME280;61999;51.514;14.614;2023-09-19T04:15:42;99234.88;;;13.46;97.06
15880;BME280;61999;51.514;14.614;2023-09-19T04:18:09;99235.25;;;13.59;97.10
15880;BME280;61999;51.514;14.614;2023-09-19T04:20:37;99233.84;;;13.31;96.97
15880;BME280;61999;51.514;14.614;2023-09-19T04:23:05;99249.53;;;12.90;99.35
15880;BME280;61999;51.514;14.614;2023-09-19T04:25:35;99244.78;;;12.67;100.00
15880;BME280;61999;51.514;14.614;2023-09-19T04:28:04;99244.09;;;12.65;100.00
15880;BME280;61999;51.514;14.614;2023-09-19T04:30:33;99244.75;;;12.93;100.00
15880;BME280;61999;51.514;14.614;2023-09-19T04:33:03;99255.22;;;12.51;100.00
15880;BME280;61999;51.514;14.614;2023-09-19T04:35:34;99249.06;;;12.68;100.00
15880;BME280;61999;51.514;14.614;2023-09-19T04:38:02;99255.97;;;12.61;100.00
15880;BME280;61999;51.514;14.614;2023-09-19T04:40:33;99262.28;;;12.68;100.00
15880;BME280;61999;51.514;14.614;2023-09-19T04:43:01;99256.38;;;12.75;100.00
15880;BME280;61999;51.514;14.614;2023-09-19T04:45:30;99269.84;;;12.63;100.00
15880;BME280;61999;51.514;14.614;2023-09-19T04:47:59;99259.59;;;12.60;100.00
15880;BME280;61999;51.514;14.614;2023-09-19T04:50:29;99252.78;;;13.44;100.00
15880;BME280;61999;51.514;14.614;2023-09-19T04:52:57;99254.06;;;13.40;97.91
15880;BME280;61999;51.514;14.614;2023-09-19T04:55:26;99253.16;;;12.89;99.99
15880;BME280;61999;51.514;14.614;2023-09-19T04:57:57;99258.38;;;12.99;100.00
15880;BME280;61999;51.514;14.614;2023-09-19T05:00:25;99262.75;;;12.90;100.00
15880;BME280;61999;51.514;14.614;2023-09-19T05:02:56;99252.75;;;13.36;99.22
15880;BME280;61999;51.514;14.614;2023-09-19T05:05:25;99250.25;;;13.00;99.77
15880;BME280;61999;51.514;14.614;2023-09-19T05:07:55;99257.66;;;13.23;98.24
15880;BME280;61999;51.514;14.614;2023-09-19T05:10:23;99266.31;;;12.99;100.00
15880;BME280;61999;51.514;14.614;2023-09-19T05:12:53;99267.22;;;13.15;100.00
15880;BME280;61999;51.514;14.614;2023-09-19T05:15:22;99273.97;;;13.10;99.37
15880;BME280;61999;51.514;14.614;2023-09-19T05:17:51;99274.53;;;13.22;99.93
15880;BME280;61999;51.514;14.614;2023-09-19T05:20:23;99283.16;;;13.24;100.00
15880;BME280;61999;51.514;14.614;2023-09-19T05:23:02;99294.75;;;12.97;100.00
15880;BME280;61999;51.514;14.614;2023-09-19T05:25:32;99291.69;;;13.09;100.00
15880;BME280;61999;51.514;14.614;2023-09-19T05:28:05;99301.03;;;12.78;100.00
15880;BME280;61999;51.514;14.614;2023-09-19T05:30:35;99297.63;;;13.11;100.00
15880;BME280;61999;51.514;14.614;2023-09-19T05:33:05;99311.66;;;12.86;100.00
15880;BME280;61999;51.514;14.614;2023-09-19T05:35:34;99311.41;;;13.57;97.78
15880;BME280;61999;51.514;14.614;2023-09-19T05:38:10;99314.06;;;13.57;94.62
15880;BME280;61999;51.514;14.614;2023-09-19T05:40:40;99308.28;;;14.21;91.59
15880;BME280;61999;51.514;14.614;2023-09-19T05:43:09;99324.59;;;13.75;91.14
15880;BME280;61999;51.514;14.614;2023-09-19T05:45:39;99320.47;;;13.47;95.40
15880;BME280;61999;51.514;14.614;2023-09-19T05:48:11;99322.28;;;13.46;95.62
15880;BME280;61999;51.514;14.614;2023-09-19T05:50:44;99327.19;;;13.67;95.60
15880;BME280;61999;51.514;14.614;2023-09-19T05:53:19;99328.09;;;13.15;99.30
15880;BME280;61999;51.514;14.614;2023-09-19T05:55:47;99336.63;;;13.70;93.88
15880;BME280;61999;51.514;14.614;2023-09-19T05:58:16;99330.91;;;13.48;96.78
15880;BME280;61999;51.514;14.614;2023-09-19T06:00:45;99336.00;;;14.43;89.99
15880;BME280;61999;51.514;14.614;2023-09-19T06:03:15;99333.44;;;14.09;91.62
15880;BME280;61999;51.514;14.614;2023-09-19T06:05:44;99340.81;;;13.72;91.42
15880;BME280;61999;51.514;14.614;2023-09-19T06:08:13;99345.31;;;13.20;97.21
15880;BME280;61999;51.514;14.614;2023-09-19T06:10:42;99343.06;;;14.10;94.00
15880;BME280;61999;51.514;14.614;2023-09-19T06:13:10;99347.13;;;13.79;92.54
15880;BME280;61999;51.514;14.614;2023-09-19T06:15:39;99360.59;;;14.02;93.00
15880;BME280;61999;51.514;14.614;2023-09-19T06:18:11;99364.34;;;13.49;94.67
15880;BME280;61999;51.514;14.614;2023-09-19T06:20:42;99365.00;;;14.69;90.41
15880;BME280;61999;51.514;14.614;2023-09-19T06:23:11;99365.44;;;14.23;88.19
15880;BME280;61999;51.514;14.614;2023-09-19T06:25:39;99369.38;;;14.03;89.16
15880;BME280;61999;51.514;14.614;2023-09-19T06:28:09;99376.31;;;13.61;89.85
15880;BME280;61999;51.514;14.614;2023-09-19T06:30:39;99377.59;;;12.97;98.21
15880;BME280;61999;51.514;14.614;2023-09-19T06:33:08;99373.97;;;13.50;97.60
15880;BME280;61999;51.514;14.614;2023-09-19T06:35:38;99379.34;;;14.01;97.01
15880;BME280;61999;51.514;14.614;2023-09-19T06:38:08;99383.38;;;13.79;92.79
15880;BME280;61999;51.514;14.614;2023-09-19T06:40:38;99387.22;;;13.85;90.61
15880;BME280;61999;51.514;14.614;2023-09-19T06:43:06;99399.59;;;13.76;96.17
15880;BME280;61999;51.514;14.614;2023-09-19T06:45:36;99404.34;;;13.98;92.58
15880;BME280;61999;51.514;14.614;2023-09-19T06:48:05;99400.13;;;14.38;93.24
15880;BME280;61999;51.514;14.614;2023-09-19T06:50:34;99398.44;;;14.21;90.35
15880;BME280;61999;51.514;14.614;2023-09-19T06:53:03;99400.56;;;13.75;91.97
15880;BME280;61999;51.514;14.614;2023-09-19T06:55:31;99421.16;;;13.81;90.23
15880;BME280;61999;51.514;14.614;2023-09-19T06:57:59;99420.94;;;15.16;85.23
15880;BME280;61999;51.514;14.614;2023-09-19T07:00:27;99427.41;;;14.73;84.87
15880;BME280;61999;51.514;14.614;2023-09-19T07:03:02;99424.38;;;15.09;85.52
15880;BME280;61999;51.514;14.614;2023-09-19T07:05:33;99436.53;;;15.36;81.00
15880;BME280;61999;51.514;14.614;2023-09-19T07:08:07;99433.75;;;15.85;76.77
15880;BME280;61999;51.514;14.614;2023-09-19T07:10:36;99439.88;;;15.94;74.12
15880;BME280;61999;51.514;14.614;2023-09-19T07:13:05;99433.38;;;15.24;81.65
15880;BME280;61999;51.514;14.614;2023-09-19T07:15:36;99437.66;;;15.01;81.98
15880;BME280;61999;51.514;14.614;2023-09-19T07:18:08;99450.78;;;16.07;73.72
15880;BME280;61999;51.514;14.614;2023-09-19T07:20:38;99442.50;;;14.97;77.98
15880;BME280;61999;51.514;14.614;2023-09-19T07:23:06;99445.47;;;14.78;81.00
15880;BME280;61999;51.514;14.614;2023-09-19T07:25:35;99457.06;;;15.09;82.02
15880;BME280;61999;51.514;14.614;2023-09-19T07:28:04;99455.25;;;15.51;78.37
15880;BME280;61999;51.514;14.614;2023-09-19T07:30:35;99467.31;;;16.25;74.64
15880;BME280;61999;51.514;14.614;2023-09-19T07:33:04;99460.94;;;16.03;75.64
15880;BME280;61999;51.514;14.614;2023-09-19T07:35:34;99467.56;;;15.35;76.18
15880;BME280;61999;51.514;14.614;2023-09-19T07:38:02;99482.41;;;15.77;72.52
15880;BME280;61999;51.514;14.614;2023-09-19T07:40:31;99470.81;;;14.72;80.19
15880;BME280;61999;51.514;14.614;2023-09-19T07:42:59;99467.56;;;15.35;75.70
15880;BME280;61999;51.514;14.614;2023-09-19T07:45:28;99478.84;;;15.29;79.10
15880;BME280;61999;51.514;14.614;2023-09-19T07:47:56;99477.72;;;16.04;73.39
15880;BME280;61999;51.514;14.614;2023-09-19T07:50:25;99483.06;;;14.14;80.10
15880;BME280;61999;51.514;14.614;2023-09-19T07:52:54;99474.59;;;14.45;84.71
15880;BME280;61999;51.514;14.614;2023-09-19T07:55:23;99486.09;;;13.85;83.63
15880;BME280;61999;51.514;14.614;2023-09-19T07:57:52;99477.50;;;14.92;77.96
15880;BME280;61999;51.514;14.614;2023-09-19T08:00:21;99485.22;;;14.11;84.94
15880;BME280;61999;51.514;14.614;2023-09-19T08:02:49;99480.91;;;14.52;81.04
15880;BME280;61999;51.514;14.614;2023-09-19T08:05:19;99490.81;;;15.33;74.36
15880;BME280;61999;51.514;14.614;2023-09-19T08:07:49;99489.81;;;16.46;71.45
15880;BME280;61999;51.514;14.614;2023-09-19T08:10:19;99482.75;;;15.74;70.27
15880;BME280;61999;51.514;14.614;2023-09-19T08:12:48;99486.44;;;15.73;73.92
15880;BME280;61999;51.514;14.614;2023-09-19T08:15:23;99487.75;;;15.61;72.79
15880;BME280;61999;51.514;14.614;2023-09-19T08:17:51;99494.09;;;15.84;71.08
15880;BME280;61999;51.514;14.614;2023-09-19T08:20:19;99498.94;;;16.20;66.77
15880;BME280;61999;51.514;14.614;2023-09-19T08:22:49;99492.47;;;15.43;68.36
15880;BME280;61999;51.514;14.614;2023-09-19T08:25:21;99490.75;;;15.01;68.52
15880;BME280;61999;51.514;14.614;2023-09-19T08:27:50;99485.16;;;15.20;72.18
15880;BME280;61999;51.514;14.614;2023-09-19T08:30:21;99494.94;;;16.24;70.90
15880;BME280;61999;51.514;14.614;2023-09-19T08:32:51;99499.78;;;15.16;69.84
15880;BME280;61999;51.514;14.614;2023-09-19T08:35:19;99489.03;;;15.98;65.89
15880;BME280;61999;51.514;14.614;2023-09-19T08:37:47;99504.41;;;16.27;64.03
15880;BME280;61999;51.514;14.614;2023-09-19T08:40:15;99499.72;;;15.65;62.66
15880;BME280;61999;51.514;14.614;2023-09-19T08:42:53;99500.13;;;17.03;61.46
15880;BME280;61999;51.514;14.614;2023-09-19T08:45:23;99506.41;;;17.71;58.75
15880;BME280;61999;51.514;14.614;2023-09-19T08:48:09;99510.19;;;18.36;56.58
15880;BME280;61999;51.514;14.614;2023-09-19T08:50:48;99522.75;;;17.07;58.73
15880;BME280;61999;51.514;14.614;2023-09-19T08:53:26;99535.56;;;16.10;55.09
15880;BME280;61999;51.514;14.614;2023-09-19T08:55:56;99537.53;;;17.10;54.34
15880;BME280;61999;51.514;14.614;2023-09-19T08:58:34;99523.31;;;16.71;53.69
15880;BME280;61999;51.514;14.614;2023-09-19T09:01:07;99532.75;;;16.82;52.98
15880;BME280;61999;51.514;14.614;2023-09-19T09:03:42;99529.38;;;17.72;50.93
15880;BME280;61999;51.514;14.614;2023-09-19T09:06:15;99519.66;;;18.24;51.59
15880;BME280;61999;51.514;14.614;2023-09-19T09:08:45;99536.34;;;16.58;49.74
15880;BME280;61999;51.514;14.614;2023-09-19T09:11:15;99537.84;;;16.92;51.21
15880;BME280;61999;51.514;14.614;2023-09-19T09:13:46;99546.47;;;16.23;50.78
15880;BME280;61999;51.514;14.614;2023-09-19T09:16:15;99544.84;;;16.14;51.37
15880;BME280;61999;51.514;14.614;2023-09-19T09:18:45;99546.06;;;16.43;51.69
15880;BME280;61999;51.514;14.614;2023-09-19T09:21:19;99525.88;;;16.17;51.10
15880;BME280;61999;51.514;14.614;2023-09-19T09:23:48;99547.94;;;16.73;49.42
15880;BME280;61999;51.514;14.614;2023-09-19T09:26:16;99556.53;;;15.97;51.38
15880;BME280;61999;51.514;14.614;2023-09-19T09:28:46;99551.16;;;16.13;50.03
15880;BME280;61999;51.514;14.614;2023-09-19T09:31:22;99540.81;;;17.43;50.14
15880;BME280;61999;51.514;14.614;2023-09-19T09:33:54;99548.28;;;16.31;48.68
15880;BME280;61999;51.514;14.614;2023-09-19T09:36:38;99550.56;;;16.82;49.94
15880;BME280;61999;51.514;14.614;2023-09-19T09:39:08;99563.03;;;15.70;51.66
15880;BME280;61999;51.514;14.614;2023-09-19T09:41:45;99554.97;;;16.66;50.86
15880;BME280;61999;51.514;14.614;2023-09-19T09:44:17;99554.19;;;16.02;49.65
15880;BME280;61999;51.514;14.614;2023-09-19T09:46:47;99565.22;;;16.78;49.91
15880;BME280;61999;51.514;14.614;2023-09-19T09:49:27;99555.97;;;16.65;50.12
15880;BME280;61999;51.514;14.614;2023-09-19T09:52:02;99560.19;;;16.43;50.91
15880;BME280;61999;51.514;14.614;2023-09-19T09:54:36;99563.09;;;17.88;48.27
15880;BME280;61999;51.514;14.614;2023-09-19T09:57:06;99566.91;;;17.71;48.58
15880;BME280;61999;51.514;14.614;2023-09-19T09:59:54;99559.50;;;16.58;48.46
15880;BME280;61999;51.514;14.614;2023-09-19T10:02:27;99570.16;;;15.28;51.50
15880;BME280;61999;51.514;14.614;2023-09-19T10:05:11;99568.50;;;15.76;50.06
15880;BME280;61999;51.514;14.614;2023-09-19T10:07:48;99564.34;;;16.54;48.44
15880;BME280;61999;51.514;14.614;2023-09-19T10:10:31;99551.78;;;18.16;45.72
15880;BME280;61999;51.514;14.614;2023-09-19T10:13:12;99564.81;;;17.43;44.04
15880;BME280;61999;51.514;14.614;2023-09-19T10:15:47;99570.94;;;16.66;45.22
15880;BME280;61999;51.514;14.614;2023-09-19T10:18:21;99555.75;;;17.90;45.39
15880;BME280;61999;51.514;14.614;2023-09-19T10:20:50;99569.84;;;17.07;43.60
15880;BME280;61999;51.514;14.614;2023-09-19T10:23:20;99557.00;;;17.18;43.36
15880;BME280;61999;51.514;14.614;2023-09-19T10:25:51;99566.03;;;16.47;43.78
15880;BME280;61999;51.514;14.614;2023-09-19T10:28:21;99547.75;;;18.20;45.62
15880;BME280;61999;51.514;14.614;2023-09-19T10:30:51;99573.88;;;17.34;41.15
15880;BME280;61999;51.514;14.614;2023-09-19T10:33:23;99558.78;;;19.62;39.79
15880;BME280;61999;51.514;14.614;2023-09-19T10:35:54;99566.56;;;20.48;37.08
15880;BME280;61999;51.514;14.614;2023-09-19T10:38:27;99573.06;;;18.90;37.27
15880;BME280;61999;51.514;14.614;2023-09-19T10:40:57;99564.94;;;18.32;39.33
15880;BME280;61999;51.514;14.614;2023-09-19T10:43:31;99562.38;;;17.56;42.65
15880;BME280;61999;51.514;14.614;2023-09-19T10:46:07;99565.13;;;16.94;42.60
15880;BME280;61999;51.514;14.614;2023-09-19T10:48:38;99573.03;;;16.79;42.66
15880;BME280;61999;51.514;14.614;2023-09-19T10:51:11;99571.78;;;17.21;41.75
15880;BME280;61999;51.514;14.614;2023-09-19T10:53:50;99570.44;;;16.94;43.53
15880;BME280;61999;51.514;14.614;2023-09-19T10:56:26;99579.47;;;16.93;42.70
15880;BME280;61999;51.514;14.614;2023-09-19T10:59:07;99583.66;;;16.40;43.20
15880;BME280;61999;51.514;14.614;2023-09-19T11:01:46;99577.97;;;16.59;43.03
15880;BME280;61999;51.514;14.614;2023-09-19T11:04:23;99586.66;;;17.99;40.57
15880;BME280;61999;51.514;14.614;2023-09-19T11:07:06;99579.03;;;17.96;42.30
15880;BME280;61999;51.514;14.614;2023-09-19T11:09:48;99579.41;;;18.67;40.67
15880;BME280;61999;51.514;14.614;2023-09-19T11:12:48;99552.97;;;18.58;40.17
15880;BME280;61999;51.514;14.614;2023-09-19T11:18:54;99584.44;;;18.18;36.99
15880;BME280;61999;51.514;14.614;2023-09-19T11:21:58;99579.66;;;17.98;37.84
15880;BME280;61999;51.514;14.614;2023-09-19T11:24:31;99568.88;;;18.66;35.81
15880;BME280;61999;51.514;14.614;2023-09-19T11:27:13;99574.50;;;18.71;36.21
15880;BME280;61999;51.514;14.614;2023-09-19T11:29:42;99569.22;;;20.48;35.80
15880;BME280;61999;51.514;14.614;2023-09-19T11:32:10;99574.75;;;19.77;33.11
15880;BME280;61999;51.514;14.614;2023-09-19T11:34:48;99567.50;;;19.49;35.98
15880;BME280;61999;51.514;14.614;2023-09-19T11:37:59;99583.75;;;19.97;30.35
15880;BME280;61999;51.514;14.614;2023-09-19T11:40:34;99573.56;;;20.49;30.45
15880;BME280;61999;51.514;14.614;2023-09-19T11:43:30;99571.47;;;19.81;31.82
15880;BME280;61999;51.514;14.614;2023-09-19T11:46:09;99566.44;;;19.22;33.16
15880;BME280;61999;51.514;14.614;2023-09-19T11:48:41;99569.72;;;19.24;34.98
15880;BME280;61999;51.514;14.614;2023-09-19T11:51:15;99568.63;;;18.97;34.59
15880;BME280;61999;51.514;14.614;2023-09-19T11:53:50;99563.66;;;19.58;33.10
15880;BME280;61999;51.514;14.614;2023-09-19T11:56:20;99561.91;;;18.65;34.89
15880;BME280;61999;51.514;14.614;2023-09-19T11:58:52;99563.75;;;18.05;36.19
15880;BME280;61999;51.514;14.614;2023-09-19T12:01:24;99565.97;;;18.46;36.37
15880;BME280;61999;51.514;14.614;2023-09-19T12:03:57;99574.97;;;19.54;34.64
15880;BME280;61999;51.514;14.614;2023-09-19T12:06:29;99562.84;;;20.49;33.60
15880;BME280;61999;51.514;14.614;2023-09-19T12:08:59;99547.97;;;20.40;34.56
15880;BME280;61999;51.514;14.614;2023-09-19T12:11:30;99569.03;;;20.56;31.56
15880;BME280;61999;51.514;14.614;2023-09-19T12:14:02;99557.53;;;22.62;30.26
15880;BME280;61999;51.514;14.614;2023-09-19T12:16:31;99561.00;;;22.11;27.52
15880;BME280;61999;51.514;14.614;2023-09-19T12:19:18;99572.69;;;20.42;27.35
15880;BME280;61999;51.514;14.614;2023-09-19T12:22:00;99571.03;;;19.28;29.14
15880;BME280;61999;51.514;14.614;2023-09-19T12:24:32;99565.91;;;21.07;28.13
15880;BME280;61999;51.514;14.614;2023-09-19T12:27:04;99560.94;;;19.52;30.16
15880;BME280;61999;51.514;14.614;2023-09-19T12:29:43;99559.38;;;21.76;27.30
15880;BME280;61999;51.514;14.614;2023-09-19T12:32:12;99555.88;;;21.82;26.14
15880;BME280;61999;51.514;14.614;2023-09-19T12:34:41;99559.38;;;22.03;25.67
15880;BME280;61999;51.514;14.614;2023-09-19T12:37:13;99545.03;;;23.69;25.61
15880;BME280;61999;51.514;14.614;2023-09-19T12:39:49;99559.19;;;20.63;26.35
15880;BME280;61999;51.514;14.614;2023-09-19T12:42:22;99547.09;;;23.42;24.23
15880;BME280;61999;51.514;14.614;2023-09-19T12:44:52;99555.59;;;22.24;24.74
15880;BME280;61999;51.514;14.614;2023-09-19T12:47:24;99553.19;;;23.06;23.80
15880;BME280;61999;51.514;14.614;2023-09-19T12:50:13;99553.19;;;23.06;25.62
15880;BME280;61999;51.514;14.614;2023-09-19T12:52:47;99567.41;;;20.55;26.30
15880;BME280;61999;51.514;14.614;2023-09-19T12:55:30;99562.84;;;22.75;24.77
15880;BME280;61999;51.514;14.614;2023-09-19T12:58:08;99567.47;;;21.56;23.85
15880;BME280;61999;51.514;14.614;2023-09-19T13:00:42;99567.25;;;22.63;24.94
15880;BME280;61999;51.514;14.614;2023-09-19T13:03:17;99558.25;;;23.96;23.75
15880;BME280;61999;51.514;14.614;2023-09-19T13:05:53;99557.97;;;24.59;21.74
15880;BME280;61999;51.514;14.614;2023-09-19T13:08:26;99562.13;;;23.81;22.62
15880;BME280;61999;51.514;14.614;2023-09-19T13:11:08;99556.16;;;19.97;25.69
15880;BME280;61999;51.514;14.614;2023-09-19T13:13:40;99558.38;;;19.01;28.23
15880;BME280;61999;51.514;14.614;2023-09-19T13:16:11;99556.22;;;20.10;26.31
15880;BME280;61999;51.514;14.614;2023-09-19T13:18:48;99550.47;;;19.78;27.14